Palmdale, CA (93551)

8:54 PM PDT on April 26, 2017 (GMT -0700)
Foothills of AV West Palmdale | | Change Station
Active Advisory: High Wind Warning Active Notice: Public Information Statement

Elev 2766 ft 34.61 °N, 118.20 °W | Updated 3 seconds ago

Mostly Cloudy
Mostly Cloudy
63.5 °F
Feels Like 63.5 °F
N
0.9
Wind Variable Wind from SW
Gusts 2.5 mph

Today
High -- | Low -- °F
--% Chance of Precip.
Yesterday
High -- | Low -- °F
Precip. -- in
Pressure 29.86 in
Visibility 10.0 miles
Clouds Clear
Dew Point 51 °F
Humidity 63%
Rainfall 0.00 in
Snow Depth Not available.
6:07 AM 7:33 PM
New Moon, 1% visible
METAR KPMD 270253Z AUTO 29018G22KT 10SM CLR 19/10 A2990 RMK AO2 PK WND 28027/0204 SLP109 T01890100 58011
Pressure 29.86 in
Visibility 10.0 miles
Clouds Clear
Dew Point 51 °F
Humidity 63%
Rainfall 0.00 in
Snow Depth Not available.
6:07 AM 7:33 PM
New Moon, 1% visible
METAR KPMD 270253Z AUTO 29018G22KT 10SM CLR 19/10 A2990 RMK AO2 PK WND 28027/0204 SLP109 T01890100 58011

Get Your Daily Forecast Email!

Thanks for signing up!

Be on the lookout for a verification email in your inbox.

You'll start receiving severe weather alerts in your inbox..

×

10-Day Weather Forecast

Almanac

Astronomy

Apr. 26, 2017 Rise Set
Actual Time
Civil Twilight
Nautical Twilight
Astronomical Twilight
Moon
Length of Visible Light
Length of Day
Tomorrow will be .
, % of the Moon is Illuminated

Today's Extremes

State Highs State Lows

Community

WunderPhotos

WunderBlog® & News

Nearby

Air Quality

  Air Quality AQ Index Pollutant
Not available.

Snow Depth

Station Depth Elevation

Earthquake Activity

City Distance Mag. Time & Date
Minimum magnitude displayed is 2.5.

Coastal Water Temperatures

Place Temperature

Stations

Nearby Weather Stations

Station Location Temp. Windchill Dew Point Humidity Wind Precip. Elev Updated Type
                   

Watches & Warnings

High Wind Warning
Issued: 7:53 PM PDT Apr. 26, 2017 – National Weather Service

... High Wind Warning remains in effect until 9 am PDT Friday...

* winds and timing... areas of northwest to north winds
increasing to 25 to 40 mph with gusts to 65 mph this afternoon
and continuing through early Friday morning. Isolated gusts to
75 mph are possible in wind prone locations. Winds will be
strongest through the Interstate 5 corridor and higher peaks.
Winds will likely weaken some but may remain gusty through early
Saturday while gradually turning offshore.

* Impacts... .gusty winds will make driving difficult, especially
for drivers of high profile vehicles. Major roads that will be
affected include Interstate 5 and Highway 14.

Precautionary/preparedness actions...

A High Wind Warning means that damaging high winds of 58 mph or
greater are likely or imminent. Secure all loose outdoor
furniture in advance of the onset of strong winds. Monitor the
latest forecasts on NOAA Weather Radio or your favorite media
source.